KACY/ACY METAR and TAF weather

Enter ICAO airport designator
Station Type Date Time Source
KACY METAR 2019/12/13 21:54 UTC NOAA

KACY 132154Z 07003KT 2 1/2SM -RA BR OVC018 12/11 A3012 RMK AO2 SFC VIS 4 RAB2058B41 SLP199 P0004 T01220111 $


Station Type Date Time Source
KACY Decoded METAR 2019/12/13 21:54 UTC NOAA

ATLANTIC CITY INTERNATIONAL, NJ, United States (KACY) 39-28N 74-35W 35M
Dec 13, 2019 - 04:54 PM EST / 2019.12.13 2154 UTC
Wind: from the ENE (070 degrees) at 3 MPH (3 KT):0
Visibility: 2 1/2 mile(s):0
Sky conditions: overcast
Weather: light rain; mist
Precipitation last hour: 0.04 inches
Temperature: 54.0 F (12.2 C)
Dew Point: 52.0 F (11.1 C)
Relative Humidity: 92%
Pressure (altimeter): 30.12 in. Hg (1019 hPa)
ob: KACY 132154Z 07003KT 2 1/2SM -RA BR OVC018 12/11 A3012 RMK AO2 SFC VIS 4 RAB2058B41 SLP199 P0004 T01220111
cycle: 22

Station Type Date Time Source
KACY TAF 2019/12/13 22:06 UTC NOAA

TAF
AMD KACY 132201Z 1322/1418 09005KT 5SM -RA BR SCT005 OVC015
TEMPO 1322/1401 2SM RA BR BKN005 OVC010
FM140100 09008KT 1SM RA OVC005
FM141100 VRB04KT 2SM -DZ OVC003 WS020/17040KT
FM141600 15009KT 2SM RA OVC005

Example: see airport list